Time;durP1;ratioP1;P1;durP2;ratioP2;P2;SDS_P1;SDS_P2;PMS_P1;PMS_P2;Temp;Humidity;BMP_temperature;BMP_pressure;BME280_temperature;BME280_humidity;BME280_pressure;Samples;Min_cycle;Max_cycle;Signal;HPM_P1;HPM_P2
2022/08/21 00:00:47;;;;;;;;;3.00;3.00;;;;;20.37;53.79;101129.44;5076504;28;45358;-61
2022/08/21 00:03:13;;;;;;;;;4.00;4.00;;;;;20.28;53.85;101112.19;5076696;28;45445;-60
2022/08/21 00:05:45;;;;;;;;;3.00;3.00;;;;;20.33;53.81;101119.91;5076331;27;45492;-62
2022/08/21 00:08:11;;;;;;;;;3.67;3.00;;;;;20.30;53.71;101109.34;5075972;28;45247;-62
2022/08/21 00:10:37;;;;;;;;;3.67;3.00;;;;;20.21;53.97;101108.34;5076440;28;45511;-61
2022/08/21 00:13:04;;;;;;;;;4.00;3.00;;;;;20.21;54.67;101111.03;5075908;28;45333;-61
2022/08/21 00:15:31;;;;;;;;;3.00;3.00;;;;;20.21;54.43;101110.19;5058033;28;45483;-62
2022/08/21 00:17:58;;;;;;;;;5.00;4.00;;;;;20.18;54.31;101116.72;5076246;27;45285;-61
2022/08/21 00:20:25;;;;;;;;;7.00;4.00;;;;;20.18;54.54;101118.53;5076646;28;45375;-60
2022/08/21 00:22:51;;;;;;;;;3.00;3.00;;;;;20.16;54.45;101112.44;5076671;28;45243;-62
2022/08/21 00:25:18;;;;;;;;;4.67;4.67;;;;;20.18;54.48;101115.84;5057663;28;48199;-62
2022/08/21 00:27:45;;;;;;;;;4.33;3.00;;;;;20.14;54.46;101103.59;5076050;28;45417;-62
2022/08/21 00:30:12;;;;;;;;;5.00;4.00;;;;;20.15;54.44;101105.31;5092775;27;45304;-62
2022/08/21 00:32:39;;;;;;;;;4.33;3.33;;;;;20.13;54.77;101112.69;5097824;27;45237;-60
2022/08/21 00:35:08;;;;;;;;;3.67;3.67;;;;;20.10;54.65;101103.03;5097826;27;45352;-62
2022/08/21 00:37:34;;;;;;;;;3.00;3.00;;;;;20.11;54.55;101110.13;5096384;27;45407;-61
2022/08/21 00:39:59;;;;;;;;;2.00;2.00;;;;;20.04;54.69;101107.09;5095693;27;45329;-61
2022/08/21 00:42:25;;;;;;;;;4.00;4.00;;;;;20.06;54.69;101106.16;5097130;27;45436;-61
2022/08/21 00:44:51;;;;;;;;;5.67;4.00;;;;;20.02;55.00;101111.78;5096541;27;46006;-61
2022/08/21 00:47:18;;;;;;;;;3.33;3.33;;;;;19.92;55.19;101091.13;5096502;27;45412;-61
2022/08/21 00:49:44;;;;;;;;;4.00;3.00;;;;;19.94;55.21;101098.13;5098158;27;45335;-61
2022/08/21 00:52:15;;;;;;;;;2.33;2.33;;;;;19.98;55.23;101104.97;5100826;27;45325;-63
2022/08/21 00:54:41;;;;;;;;;2.00;2.00;;;;;20.01;55.23;101095.72;5082749;27;46535;-61
2022/08/21 00:57:15;;;;;;;;;5.00;5.00;;;;;19.99;55.32;101085.06;5099884;27;45248;-61
2022/08/21 00:59:45;;;;;;;;;4.00;4.00;;;;;19.97;55.45;101091.59;5099919;27;45380;-62
2022/08/21 01:02:11;;;;;;;;;4.67;4.00;;;;;19.96;55.77;101088.03;5100238;27;45173;-63
2022/08/21 01:04:37;;;;;;;;;6.00;4.00;;;;;19.94;55.47;101081.94;5099554;27;46102;-60
2022/08/21 01:07:03;;;;;;;;;7.67;3.67;;;;;19.93;55.57;101091.03;5099634;27;45367;-61
2022/08/21 01:09:28;;;;;;;;;4.67;4.67;;;;;19.90;55.68;101099.38;5081371;27;45379;-60
2022/08/21 01:11:54;;;;;;;;;3.33;3.33;;;;;19.91;55.61;101100.22;5099907;27;45462;-60
2022/08/21 01:14:19;;;;;;;;;3.00;3.00;;;;;19.88;55.61;101098.66;5099605;27;45356;-61
2022/08/21 01:16:49;;;;;;;;;4.67;4.67;;;;;19.90;55.83;101102.06;5099497;27;45432;-59
2022/08/21 01:19:16;;;;;;;;;6.67;5.00;;;;;19.87;55.89;101096.94;5099486;27;45370;-61
2022/08/21 01:21:42;;;;;;;;;3.00;3.00;;;;;19.87;56.02;101101.47;5099498;27;45407;-63
2022/08/21 01:24:08;;;;;;;;;5.33;3.00;;;;;19.87;56.02;101094.25;5098844;27;46955;-61
2022/08/21 01:26:36;;;;;;;;;3.33;3.00;;;;;19.86;55.82;101097.06;5099226;27;45451;-64
2022/08/21 01:29:09;;;;;;;;;5.00;3.00;;;;;19.88;55.68;101100.50;5092041;27;45353;-62
2022/08/21 01:31:36;;;;;;;;;3.00;3.00;;;;;19.82;55.92;101099.19;5079061;28;45324;-61
2022/08/21 01:34:03;;;;;;;;;6.33;4.67;;;;;19.87;55.89;101112.28;5078522;27;45275;-65
2022/08/21 01:36:28;;;;;;;;;4.67;3.00;;;;;19.81;56.13;101105.59;5078759;28;45905;-61
2022/08/21 01:38:54;;;;;;;;;3.00;3.00;;;;;19.82;55.94;101109.13;5078961;28;45385;-62
2022/08/21 01:41:20;;;;;;;;;3.00;3.00;;;;;19.82;56.34;101110.00;5078998;28;45507;-63
2022/08/21 01:43:46;;;;;;;;;6.67;3.33;;;;;19.79;56.61;101112.94;5078342;28;47063;-61
2022/08/21 01:46:12;;;;;;;;;4.33;4.00;;;;;19.79;56.51;101104.84;5060304;28;45482;-61
2022/08/21 01:48:38;;;;;;;;;4.00;4.00;;;;;19.77;56.31;101112.22;5078793;28;45417;-63
2022/08/21 01:51:05;;;;;;;;;6.00;3.33;;;;;19.71;56.33;101101.97;5060461;28;45748;-61
2022/08/21 01:53:31;;;;;;;;;5.67;4.00;;;;;19.71;56.74;101107.38;5077967;28;46352;-61
2022/08/21 01:55:56;;;;;;;;;3.67;2.00;;;;;19.71;56.46;101112.75;5078652;28;45311;-62
2022/08/21 01:58:22;;;;;;;;;6.33;5.00;;;;;19.68;56.48;101103.09;5078588;28;45287;-60
2022/08/21 02:00:49;;;;;;;;;6.33;5.00;;;;;19.65;56.73;101097.94;5078015;28;45221;-60
2022/08/21 02:03:14;;;;;;;;;2.33;2.33;;;;;19.63;56.48;101093.66;5077763;28;45950;-62
2022/08/21 02:05:40;;;;;;;;;4.67;3.67;;;;;19.64;56.68;101095.38;5078106;27;45343;-61
2022/08/21 02:08:06;;;;;;;;;3.00;3.00;;;;;19.60;57.09;101096.63;5078488;27;45486;-60
2022/08/21 02:10:32;;;;;;;;;3.67;2.00;;;;;19.54;57.06;101089.91;5078493;28;45549;-59
2022/08/21 02:13:00;;;;;;;;;3.00;3.00;;;;;19.55;56.80;101091.63;5078206;27;46118;-60
2022/08/21 02:15:27;;;;;;;;;2.00;2.00;;;;;19.55;56.96;101090.78;5060280;28;45490;-61
2022/08/21 02:17:59;;;;;;;;;6.33;3.33;;;;;19.55;56.64;101091.63;5077525;28;45338;-61
2022/08/21 02:20:35;;;;;;;;;3.67;3.67;;;;;19.53;56.93;101076.50;5078659;28;45420;-61
2022/08/21 02:23:00;;;;;;;;;7.33;4.33;;;;;19.54;57.02;101094.44;5078263;28;46193;-61
2022/08/21 02:25:28;;;;;;;;;3.00;3.00;;;;;19.54;56.84;101081.81;5078228;28;45404;-62
2022/08/21 02:27:54;;;;;;;;;3.33;3.33;;;;;19.50;57.16;101068.69;5078260;28;45249;-60
2022/08/21 02:30:29;;;;;;;;;5.00;5.00;;;;;19.55;57.04;101080.00;5096624;27;45214;-61
2022/08/21 02:32:55;;;;;;;;;4.00;4.00;;;;;19.51;57.29;101083.88;5098304;27;47153;-60
2022/08/21 02:35:21;;;;;;;;;3.00;3.00;;;;;19.51;57.00;101082.03;5098715;27;45346;-60
2022/08/21 02:37:53;;;;;;;;;4.00;2.67;;;;;19.50;57.21;101085.72;5098990;27;45469;-60
2022/08/21 02:40:24;;;;;;;;;3.00;3.00;;;;;19.47;56.94;101079.75;5098365;27;45361;-61
2022/08/21 02:42:49;;;;;;;;;3.00;3.00;;;;;19.45;57.32;101075.34;5098079;27;45502;-62
2022/08/21 02:45:17;;;;;;;;;3.33;3.33;;;;;19.40;57.48;101083.00;5081169;27;45555;-65
2022/08/21 02:47:58;;;;;;;;;5.00;3.33;;;;;19.44;57.11;101086.28;5101147;27;45439;-60
2022/08/21 02:50:30;;;;;;;;;3.00;3.00;;;;;19.38;57.19;101084.94;5098393;27;45508;-61
2022/08/21 02:52:56;;;;;;;;;7.67;4.00;;;;;19.46;57.30;101097.78;5098001;27;46161;-61
2022/08/21 02:55:27;;;;;;;;;4.67;2.33;;;;;19.45;57.38;101096.06;5097501;27;45291;-60
2022/08/21 02:57:54;;;;;;;;;4.00;4.00;;;;;19.41;57.73;101091.94;5097768;27;45282;-60
2022/08/21 03:00:21;;;;;;;;;3.33;3.33;;;;;19.39;57.66;101086.66;5098141;27;45486;-62
2022/08/21 03:02:48;;;;;;;;;4.00;4.00;;;;;19.36;57.80;101092.31;5097698;27;45490;-62
2022/08/21 03:05:14;;;;;;;;;3.00;3.00;;;;;19.36;57.64;101088.75;5097418;27;46251;-61
2022/08/21 03:07:41;;;;;;;;;2.33;2.33;;;;;19.34;58.08;101088.88;5096741;27;45447;-61
2022/08/21 03:10:07;;;;;;;;;5.33;3.00;;;;;19.31;58.22;101088.31;5098186;27;45583;-65
2022/08/21 03:12:35;;;;;;;;;3.67;3.00;;;;;19.29;58.17;101096.53;5097886;27;45365;-64
2022/08/21 03:15:03;;;;;;;;;5.00;5.00;;;;;19.23;58.39;101083.53;5079945;27;45409;-62
2022/08/21 03:17:29;;;;;;;;;5.00;5.00;;;;;19.26;58.28;101090.50;5098049;27;45370;-60
2022/08/21 03:19:54;;;;;;;;;3.00;2.00;;;;;19.26;58.27;101085.97;5097855;27;45423;-62
2022/08/21 03:22:19;;;;;;;;;7.00;4.67;;;;;19.21;58.58;101088.22;5079225;27;47345;-61
2022/08/21 03:24:45;;;;;;;;;4.00;4.00;;;;;19.19;58.62;101089.34;5097228;27;45390;-61
2022/08/21 03:27:12;;;;;;;;;5.00;5.00;;;;;19.13;58.77;101082.59;5097033;27;45522;-61
2022/08/21 03:29:38;;;;;;;;;10.67;6.00;;;;;19.11;58.57;101087.28;5084054;27;45361;-59
2022/08/21 03:32:03;;;;;;;;;3.00;3.00;;;;;19.07;59.39;101075.91;5076820;28;45350;-61
2022/08/21 03:34:29;;;;;;;;;6.67;5.00;;;;;19.04;59.33;101072.63;5077249;28;45381;-60
2022/08/21 03:36:54;;;;;;;;;6.33;4.33;;;;;19.02;59.18;101075.44;5076700;27;45771;-60
2022/08/21 03:39:20;;;;;;;;;5.67;4.33;;;;;19.00;59.46;101066.59;5076991;28;45492;-61
2022/08/21 03:41:47;;;;;;;;;5.00;5.00;;;;;19.01;59.14;101053.97;5076558;28;45939;-62
2022/08/21 03:44:12;;;;;;;;;7.00;5.67;;;;;19.06;59.34;101058.00;5076590;28;45485;-61
2022/08/21 03:46:38;;;;;;;;;5.00;3.33;;;;;19.07;59.15;101046.25;5076790;27;45325;-60
2022/08/21 03:49:04;;;;;;;;;5.00;5.00;;;;;19.04;59.12;101048.34;5077129;28;45386;-61
2022/08/21 03:51:32;;;;;;;;;8.00;5.33;;;;;19.07;59.12;101038.16;5076305;28;46283;-61
2022/08/21 03:53:57;;;;;;;;;6.33;3.67;;;;;19.06;59.44;101041.84;5041473;28;45421;-61
2022/08/21 03:56:24;;;;;;;;;5.00;4.00;;;;;19.06;59.34;101049.06;5076563;27;45511;-62
2022/08/21 03:58:49;;;;;;;;;5.00;5.00;;;;;19.07;59.36;101046.25;5076834;28;45550;-63
2022/08/21 04:01:14;;;;;;;;;7.00;5.33;;;;;19.06;59.07;101054.47;5058821;28;46204;-61
2022/08/21 04:03:40;;;;;;;;;6.67;4.00;;;;;19.09;59.17;101054.19;5076961;28;45255;-59
2022/08/21 04:06:07;;;;;;;;;3.67;3.00;;;;;19.09;59.20;101046.09;5076710;27;45778;-60
2022/08/21 04:08:33;;;;;;;;;4.00;4.00;;;;;19.09;59.33;101043.41;5076699;28;45334;-59
2022/08/21 04:10:59;;;;;;;;;4.00;4.00;;;;;19.07;58.54;101034.59;5074882;28;45333;-61
2022/08/21 04:13:26;;;;;;;;;8.00;4.00;;;;;19.07;59.25;101035.47;5076227;27;45484;-61
2022/08/21 04:15:52;;;;;;;;;4.00;4.00;;;;;19.11;59.07;101044.13;5076532;28;45436;-61
2022/08/21 04:18:18;;;;;;;;;4.00;4.00;;;;;19.10;59.17;101043.28;5076682;28;45239;-59
2022/08/21 04:20:46;;;;;;;;;4.00;4.00;;;;;19.10;59.22;101045.13;5076384;27;46926;-65
2022/08/21 04:23:11;;;;;;;;;4.67;4.67;;;;;19.05;59.59;101052.75;5077456;28;45341;-60
2022/08/21 04:25:37;;;;;;;;;6.00;6.00;;;;;18.94;59.96;101056.34;5079699;28;45572;-62
2022/08/21 04:28:03;;;;;;;;;11.00;8.00;;;;;18.90;60.07;101052.22;5080870;27;45310;-61
2022/08/21 04:30:29;;;;;;;;;19.33;18.00;;;;;18.88;60.36;101061.38;5080969;27;45358;-61
2022/08/21 04:32:55;;;;;;;;;5.00;5.00;;;;;18.88;60.22;101064.06;5100454;27;45382;-62
2022/08/21 04:35:22;;;;;;;;;9.00;7.67;;;;;18.85;60.31;101070.59;5099275;27;45415;-61
2022/08/21 04:37:48;;;;;;;;;7.67;7.33;;;;;18.82;60.60;101071.69;5100945;27;45318;-62
2022/08/21 04:40:15;;;;;;;;;4.67;4.33;;;;;18.80;60.63;101078.22;5101198;27;45440;-62
2022/08/21 04:42:53;;;;;;;;;9.00;8.00;;;;;18.73;60.65;101072.44;5100711;27;45331;-61
2022/08/21 04:45:23;;;;;;;;;6.33;5.00;;;;;18.74;60.50;101076.00;5099332;27;45428;-60
2022/08/21 04:47:50;;;;;;;;;9.33;8.00;;;;;18.76;60.72;101080.31;5100189;27;45697;-61
2022/08/21 04:50:16;;;;;;;;;11.00;9.67;;;;;18.77;60.60;101073.94;5099605;27;46166;-61
2022/08/21 04:52:42;;;;;;;;;9.67;8.00;;;;;18.80;60.89;101079.06;5099386;27;45317;-63
2022/08/21 04:55:08;;;;;;;;;9.00;6.00;;;;;18.72;60.57;101070.75;5100370;27;45441;-63
2022/08/21 04:57:34;;;;;;;;;7.67;7.67;;;;;18.80;60.65;101086.28;5100185;27;45519;-61
2022/08/21 05:00:00;;;;;;;;;6.00;6.00;;;;;18.76;60.79;101085.69;5099575;27;45345;-60
2022/08/21 05:02:26;;;;;;;;;4.00;2.67;;;;;18.70;60.99;101086.19;5099791;27;45452;-60
2022/08/21 05:04:54;;;;;;;;;5.67;5.67;;;;;18.62;60.72;101085.94;5099711;27;45340;-61
2022/08/21 05:07:24;;;;;;;;;11.00;5.67;;;;;18.67;60.97;101090.97;5099827;27;45600;-61
2022/08/21 05:09:50;;;;;;;;;7.33;7.33;;;;;18.67;61.16;101097.22;5080824;27;46841;-62
2022/08/21 05:12:16;;;;;;;;;10.33;8.00;;;;;18.70;60.87;101093.41;5099640;27;45398;-60
2022/08/21 05:14:42;;;;;;;;;5.00;5.00;;;;;18.72;60.82;101086.06;5081310;27;45488;-61
2022/08/21 05:17:08;;;;;;;;;6.00;6.00;;;;;18.75;60.86;101080.41;5100016;27;45432;-62
2022/08/21 05:19:34;;;;;;;;;8.33;7.00;;;;;18.75;60.55;101080.41;5099314;27;45550;-62
2022/08/21 05:22:00;;;;;;;;;8.67;8.00;;;;;18.74;60.83;101074.16;5099479;27;45215;-62
2022/08/21 05:24:26;;;;;;;;;8.33;7.33;;;;;18.73;61.02;101077.84;5099506;27;45183;-62
2022/08/21 05:26:51;;;;;;;;;9.67;7.33;;;;;18.77;60.79;101084.72;5081355;27;45352;-60
2022/08/21 05:29:16;;;;;;;;;8.00;6.33;;;;;18.69;60.64;101075.53;5089353;27;56228;-62
2022/08/21 05:31:43;;;;;;;;;8.67;7.67;;;;;18.78;60.93;101089.13;5078622;28;45340;-61
2022/08/21 05:34:08;;;;;;;;;6.33;6.33;;;;;18.78;61.10;101081.03;5079105;28;45455;-61
2022/08/21 05:36:34;;;;;;;;;5.33;4.33;;;;;18.80;59.94;101089.84;5077672;28;45566;-62
2022/08/21 05:38:59;;;;;;;;;5.33;4.33;;;;;18.79;60.13;101081.88;5078581;28;45482;-61
2022/08/21 05:41:25;;;;;;;;;6.00;4.33;;;;;18.67;60.33;101054.13;5078540;28;45330;-62
2022/08/21 05:43:50;;;;;;;;;4.00;4.00;;;;;18.85;60.18;101074.13;5078944;28;45318;-61
2022/08/21 05:46:16;;;;;;;;;7.00;5.33;;;;;18.85;60.45;101076.81;5080111;28;45557;-62
2022/08/21 05:48:41;;;;;;;;;7.33;7.33;;;;;18.86;60.99;101077.69;5079571;27;46053;-61
2022/08/21 05:51:12;;;;;;;;;4.00;3.00;;;;;18.87;59.82;101074.00;5078536;28;45370;-61
2022/08/21 05:53:39;;;;;;;;;6.33;4.00;;;;;18.86;59.80;101078.53;5079035;28;45397;-62
2022/08/21 05:56:06;;;;;;;;;2.33;2.33;;;;;18.92;59.24;101081.72;5078597;27;45627;-62
2022/08/21 05:58:33;;;;;;;;;6.00;3.00;;;;;18.90;59.29;101078.31;5077975;28;45452;-62
2022/08/21 06:00:59;;;;;;;;;4.00;4.00;;;;;18.95;59.33;101086.84;5078215;27;45342;-62
2022/08/21 06:03:29;;;;;;;;;3.00;3.00;;;;;18.90;59.16;101086.38;5078296;28;45286;-61
2022/08/21 06:05:55;;;;;;;;;4.67;3.00;;;;;18.94;59.12;101085.13;5060688;28;45500;-61
2022/08/21 06:08:21;;;;;;;;;2.67;2.67;;;;;18.98;58.90;101091.97;5078596;28;45434;-61
2022/08/21 06:10:48;;;;;;;;;6.00;2.33;;;;;19.00;59.09;101084.63;5078712;27;45386;-60
2022/08/21 06:13:15;;;;;;;;;3.00;3.00;;;;;19.02;59.10;101094.31;5079024;28;45303;-62
2022/08/21 06:15:41;;;;;;;;;4.67;2.00;;;;;19.06;58.80;101086.81;5079019;28;45555;-60
2022/08/21 06:18:07;;;;;;;;;3.00;3.00;;;;;19.10;58.74;101090.94;5078083;28;46943;-61
2022/08/21 06:20:32;;;;;;;;;4.33;4.33;;;;;19.05;58.55;101077.03;5078295;28;45468;-62
2022/08/21 06:22:58;;;;;;;;;3.67;3.67;;;;;19.09;58.99;101073.06;5078067;28;45423;-62
2022/08/21 06:25:24;;;;;;;;;2.33;2.33;;;;;19.18;58.67;101082.25;5078281;27;45260;-60
2022/08/21 06:27:50;;;;;;;;;2.67;2.67;;;;;19.23;58.71;101086.25;5077842;28;46178;-62
2022/08/21 06:30:16;;;;;;;;;5.00;3.00;;;;;19.18;58.41;101071.44;5095286;27;45313;-62
2022/08/21 06:32:41;;;;;;;;;5.00;4.00;;;;;19.26;58.16;101085.13;5098799;27;45262;-61
2022/08/21 06:35:07;;;;;;;;;5.33;4.33;;;;;19.17;58.24;101054.41;5099433;27;45385;-60
2022/08/21 06:37:33;;;;;;;;;4.33;3.00;;;;;19.36;58.27;101092.31;5098634;27;46126;-61
2022/08/21 06:39:58;;;;;;;;;4.00;4.00;;;;;19.37;58.12;101072.44;5080301;27;45393;-60
2022/08/21 06:42:24;;;;;;;;;5.00;3.33;;;;;19.47;57.93;101077.06;5098728;27;45365;-61
2022/08/21 06:44:49;;;;;;;;;4.00;4.00;;;;;19.44;57.61;101068.25;5097448;27;45635;-61
2022/08/21 06:47:15;;;;;;;;;4.00;4.00;;;;;19.55;58.19;101061.09;5097412;27;45269;-59
2022/08/21 06:49:41;;;;;;;;;4.00;4.00;;;;;19.51;57.22;101040.72;5098196;27;45245;-61
2022/08/21 06:52:11;;;;;;;;;4.00;4.00;;;;;19.66;57.89;101058.31;5098209;27;45294;-62
2022/08/21 06:54:37;;;;;;;;;5.00;4.00;;;;;19.75;57.43;101054.81;5098312;27;45563;-62
2022/08/21 06:57:02;;;;;;;;;6.67;5.00;;;;;19.83;56.97;101056.88;5097961;27;45440;-61
2022/08/21 06:59:28;;;;;;;;;4.00;3.67;;;;;19.89;56.72;101057.16;5097577;27;45491;-62
2022/08/21 07:01:53;;;;;;;;;3.67;3.67;;;;;19.98;56.67;101056.38;5096237;27;45270;-60
2022/08/21 07:04:19;;;;;;;;;4.00;4.00;;;;;19.99;56.20;101046.41;5098039;27;45661;-62
2022/08/21 07:06:45;;;;;;;;;4.00;4.00;;;;;20.11;56.10;101060.69;5097904;27;46604;-61
2022/08/21 07:09:10;;;;;;;;;4.67;3.00;;;;;20.11;56.07;101060.69;5098067;27;45346;-62
2022/08/21 07:11:37;;;;;;;;;6.00;5.00;;;;;20.14;55.96;101058.56;5098528;27;45262;-61
2022/08/21 07:14:03;;;;;;;;;6.67;6.00;;;;;20.15;55.71;101060.25;5098280;27;45372;-62
2022/08/21 07:16:28;;;;;;;;;5.33;4.00;;;;;20.20;56.40;101054.47;5097357;27;45320;-61
2022/08/21 07:18:54;;;;;;;;;5.33;5.00;;;;;20.20;55.92;101054.47;5096660;27;45345;-62
2022/08/21 07:21:19;;;;;;;;;4.00;3.67;;;;;20.13;56.00;101037.09;5097670;27;45349;-63
2022/08/21 07:23:47;;;;;;;;;4.67;4.67;;;;;20.17;56.37;101044.78;5097753;27;45564;-61
2022/08/21 07:26:15;;;;;;;;;5.00;5.00;;;;;20.22;56.06;101050.63;5096567;27;45413;-62
2022/08/21 07:28:41;;;;;;;;;6.00;5.00;;;;;20.23;56.59;101049.63;5092709;27;45510;-62
2022/08/21 07:31:07;;;;;;;;;6.00;6.00;;;;;20.31;56.10;101057.94;5077812;28;45780;-61
2022/08/21 07:33:34;;;;;;;;;6.33;4.00;;;;;20.38;56.31;101062.75;5060413;28;45563;-62
2022/08/21 07:36:00;;;;;;;;;8.33;6.00;;;;;20.44;56.20;101052.28;5076922;27;45577;-61
2022/08/21 07:38:26;;;;;;;;;8.67;7.00;;;;;20.51;56.09;101048.03;5075344;28;45383;-61
2022/08/21 07:40:56;;;;;;;;;4.67;4.67;;;;;20.60;55.79;101057.16;5076943;27;45405;-61
2022/08/21 07:43:21;;;;;;;;;8.33;6.00;;;;;20.67;56.08;101047.50;5076736;28;45535;-61
2022/08/21 07:45:47;;;;;;;;;5.67;5.00;;;;;20.75;55.56;101044.97;5076657;28;46022;-60
2022/08/21 07:48:12;;;;;;;;;5.67;4.00;;;;;20.85;55.04;101047.69;5076160;27;45305;-62
2022/08/21 07:50:39;;;;;;;;;7.00;6.00;;;;;20.91;55.19;101045.25;5076532;28;45398;-61
2022/08/21 07:53:05;;;;;;;;;6.00;6.00;;;;;21.03;55.04;101045.97;5077455;28;45493;-62
2022/08/21 07:55:30;;;;;;;;;6.67;6.67;;;;;21.15;54.42;101046.69;5075958;28;46061;-61
2022/08/21 07:57:56;;;;;;;;;6.67;6.00;;;;;21.21;54.25;101040.69;5077127;28;45341;-62
2022/08/21 08:00:24;;;;;;;;;4.00;4.00;;;;;21.29;54.44;101040.00;5077550;27;45496;-61
2022/08/21 08:02:51;;;;;;;;;6.33;5.33;;;;;21.43;54.17;101039.56;5089604;27;47535;-61
2022/08/21 08:05:20;;;;;;;;;6.33;5.33;;;;;21.53;53.95;101034.97;5062795;27;47388;-61
2022/08/21 08:07:47;;;;;;;;;4.50;4.00;;;;;21.62;53.65;101031.41;5097112;27;45575;-62
2022/08/21 08:10:13;;;;;;;;;6.00;6.00;;;;;21.82;53.97;101044.88;5086732;27;45432;-62
2022/08/21 08:12:40;;;;;;;;;5.75;4.75;;;;;21.96;52.52;101036.25;5076518;28;45790;-62
2022/08/21 08:15:08;;;;;;;;;5.25;3.00;;;;;22.02;53.61;101024.84;5076077;28;45343;-61
2022/08/21 08:17:33;;;;;;;;;4.00;4.00;;;;;22.18;52.51;101024.22;5076223;27;45449;-60
2022/08/21 08:20:02;;;;;;;;;11.50;6.00;;;;;22.36;51.97;101036.81;5096816;27;45453;-64
2022/08/21 08:22:28;;;;;;;;;4.00;4.00;;;;;22.42;50.60;101026.38;5078392;27;45268;-61
2022/08/21 08:24:54;;;;;;;;;5.25;5.25;;;;;22.57;50.69;101033.00;5095112;27;47570;-61
2022/08/21 08:27:20;;;;;;;;;8.25;5.50;;;;;22.61;48.85;101026.25;5097285;27;45320;-61
2022/08/21 08:29:46;;;;;;;;;2.25;2.25;;;;;22.67;49.36;101029.22;5098450;27;45258;-61
2022/08/21 08:32:12;;;;;;;;;4.00;4.00;;;;;22.73;48.11;101026.88;5097285;27;45365;-61
2022/08/21 08:34:38;;;;;;;;;7.75;4.50;;;;;22.65;48.39;101001.38;5096313;27;46476;-61
2022/08/21 08:37:05;;;;;;;;;4.50;4.50;;;;;22.83;48.15;101025.84;5057335;28;45333;-62
2022/08/21 08:39:30;;;;;;;;;5.75;5.75;;;;;22.91;47.86;101016.91;5075783;28;45544;-61
2022/08/21 08:42:09;;;;;;;;;7.00;5.25;;;;;23.13;48.41;101023.72;5076065;27;45402;-61
2022/08/21 08:44:35;;;;;;;;;5.50;5.00;;;;;23.28;48.10;101024.00;5074944;28;45274;-60
2022/08/21 08:47:01;;;;;;;;;5.75;5.75;;;;;23.35;46.13;101017.81;5075912;27;45483;-61
2022/08/21 08:49:37;;;;;;;;;8.00;6.00;;;;;23.38;47.74;101017.47;5057570;28;45310;-68
2022/08/21 08:52:22;;;;;;;;;4.50;4.50;;;;;23.44;45.72;101014.16;5076194;28;45378;-62
2022/08/21 08:54:56;;;;;;;;;4.00;4.00;;;;;23.60;46.13;101015.28;5076093;28;46304;-61
2022/08/21 08:57:24;;;;;;;;;4.00;4.00;;;;;23.80;46.23;101020.31;5075997;28;45733;-62
2022/08/21 08:59:52;;;;;;;;;6.75;4.25;;;;;24.04;44.88;101016.88;5076086;28;45406;-61
2022/08/21 09:02:18;;;;;;;;;6.50;5.25;;;;;24.26;44.37;101011.88;5076030;28;45515;-61
2022/08/21 09:04:48;;;;;;;;;8.00;8.00;;;;;24.34;44.64;101006.47;5075432;28;45979;-61
2022/08/21 09:07:24;;;;;;;;;3.20;3.20;;;;;24.41;44.47;101008.38;5075660;28;45553;-63
2022/08/21 09:10:13;;;;;;;;;4.50;4.50;;;;;24.58;44.83;100998.41;5084799;27;45483;-61
2022/08/21 09:12:50;;;;;;;;;4.75;4.00;;;;;24.67;43.98;100996.56;5100079;27;45273;-61
2022/08/21 09:15:21;;;;;;;;;5.00;4.75;;;;;24.70;43.50;100991.63;5100134;27;47192;-62
2022/08/21 09:18:03;;;;;;;;;3.80;3.80;;;;;24.71;43.51;100996.03;5099842;27;45464;-61
2022/08/21 09:20:48;;;;;;;;;5.80;3.80;;;;;24.75;44.03;100987.56;5099789;27;45373;-62
2022/08/21 09:23:28;;;;;;;;;5.25;5.25;;;;;24.97;43.77;100989.59;5100018;27;45337;-61
2022/08/21 09:26:17;;;;;;;;;4.00;4.00;;;;;25.19;42.02;100971.78;5099124;27;45364;-61
2022/08/21 09:28:43;;;;;;;;;4.20;3.60;;;;;25.35;41.66;100984.50;5099056;27;45329;-62
2022/08/21 09:31:30;;;;;;;;;6.80;4.00;;;;;25.53;42.96;100982.44;5097740;27;45519;-62
2022/08/21 09:34:08;;;;;;;;;5.50;3.75;;;;;25.69;42.33;100976.97;5098455;27;45624;-61
2022/08/21 09:36:45;;;;;;;;;4.00;4.00;;;;;25.86;41.99;100981.34;5098886;27;45558;-62
2022/08/21 09:39:21;;;;;;;;;3.00;3.00;;;;;25.88;41.49;100982.00;5099778;27;45332;-62
2022/08/21 09:41:56;;;;;;;;;3.80;3.80;;;;;25.85;41.04;100981.53;5099819;27;45229;-61
2022/08/21 09:44:29;;;;;;;;;3.00;3.00;;;;;25.82;40.88;100984.59;5099795;27;45230;-62
2022/08/21 09:46:56;;;;;;;;;2.00;2.00;;;;;25.95;40.20;100989.50;5098933;27;46264;-62
2022/08/21 09:49:34;;;;;;;;;3.20;3.20;;;;;26.03;40.47;100967.63;5099095;27;45224;-64
2022/08/21 09:52:01;;;;;;;;;5.00;3.00;;;;;26.39;40.98;100987.94;5099161;27;45858;-61
2022/08/21 09:54:31;;;;;;;;;3.80;2.80;;;;;26.61;39.99;100989.00;5098858;27;45507;-61
2022/08/21 09:59:43;;;;;;;;;5.60;3.80;;;;;26.95;38.93;100974.06;5098760;27;45222;-62
2022/08/21 10:02:30;;;;;;;;;5.20;4.00;;;;;27.04;38.48;100957.47;5080736;27;45349;-61
2022/08/21 10:05:15;;;;;;;;;6.00;3.00;;;;;27.14;38.11;100961.84;5098514;27;45301;-62
2022/08/21 10:07:41;;;;;;;;;4.20;3.80;;;;;27.17;38.08;100961.47;5096823;27;45325;-61
2022/08/21 10:10:14;;;;;;;;;3.00;3.00;;;;;27.13;38.24;100954.69;5086795;27;45337;-62
2022/08/21 10:13:07;;;;;;;;;1.20;1.20;;;;;27.17;37.65;100950.53;5077991;28;45436;-61
2022/08/21 10:16:00;;;;;;;;;2.40;2.40;;;;;27.17;38.74;100947.81;5078070;28;45619;-62
2022/08/21 10:19:01;;;;;;;;;6.00;3.40;;;;;26.97;38.09;100929.19;5077293;28;45311;-61
2022/08/21 10:21:53;;;;;;;;;4.00;3.20;;;;;26.73;37.55;100934.88;5076387;28;45794;-61
2022/08/21 10:24:33;;;;;;;;;2.00;2.00;;;;;26.54;39.23;100938.06;5069907;27;45513;-65
2022/08/21 10:27:10;;;;;;;;;3.60;3.00;;;;;26.33;39.46;100942.28;5078277;28;45496;-63
2022/08/21 10:29:38;;;;;;;;;2.80;2.80;;;;;26.21;39.47;100938.25;5077068;28;45440;-62
2022/08/21 10:33:01;;;;;;;;;3.40;2.60;;;;;26.08;39.80;100924.38;5077541;27;45396;-61
2022/08/21 10:35:35;;;;;;;;;2.20;2.20;;;;;25.98;39.48;100921.00;5015785;28;45510;-63
2022/08/21 10:38:29;;;;;;;;;3.40;3.00;;;;;25.91;39.66;100926.31;5015552;28;45300;-62
2022/08/21 10:41:01;;;;;;;;;4.00;4.00;;;;;25.87;39.60;100928.53;5046509;28;45531;-63
2022/08/21 10:43:49;;;;;;;;;4.00;4.00;;;;;25.85;40.94;100927.88;5077873;28;45466;-62
2022/08/21 10:46:25;;;;;;;;;3.00;3.00;;;;;25.87;40.64;100925.81;5077615;28;45246;-61
2022/08/21 10:48:59;;;;;;;;;5.40;3.00;;;;;25.81;40.46;100910.19;5077841;28;45180;-62
2022/08/21 10:52:21;;;;;;;;;6.40;3.40;;;;;25.85;40.19;100906.06;5059574;28;46280;-61
2022/08/21 10:55:15;;;;;;;;;4.40;4.00;;;;;25.92;40.42;100894.47;5077428;28;45413;-61
2022/08/21 10:57:57;;;;;;;;;3.60;3.60;;;;;26.00;40.50;100886.25;5077867;28;45410;-62
2022/08/21 11:00:44;;;;;;;;;4.50;4.50;;;;;26.16;41.10;100888.84;5077056;28;45309;-62
2022/08/21 11:03:31;;;;;;;;;3.80;2.20;;;;;26.21;39.94;100905.53;5076397;28;46185;-60
2022/08/21 11:06:10;;;;;;;;;3.20;3.20;;;;;26.16;39.52;100894.31;5077569;28;45417;-62
2022/08/21 11:08:43;;;;;;;;;5.00;4.00;;;;;26.19;39.77;100896.72;5077440;28;45338;-63
2022/08/21 11:11:15;;;;;;;;;4.00;4.00;;;;;26.23;39.19;100898.03;5097437;27;45345;-60
2022/08/21 11:13:51;;;;;;;;;4.80;3.00;;;;;26.27;39.54;100904.81;5097349;27;46164;-61
2022/08/21 11:16:41;;;;;;;;;3.00;3.00;;;;;26.23;39.74;100914.38;5078880;27;45512;-61
2022/08/21 11:19:19;;;;;;;;;3.00;3.00;;;;;26.24;40.19;100915.25;5097337;27;45276;-62
2022/08/21 11:22:00;;;;;;;;;3.40;2.00;;;;;26.25;40.47;100916.94;5097521;27;45341;-61
2022/08/21 11:24:34;;;;;;;;;4.00;4.00;;;;;26.23;39.25;100928.03;5097781;27;45201;-62
2022/08/21 11:27:12;;;;;;;;;2.80;2.00;;;;;26.30;39.24;100920.81;5097684;27;45206;-62
2022/08/21 11:29:41;;;;;;;;;1.40;1.40;;;;;26.33;38.30;100925.91;5097054;27;45314;-61
2022/08/21 11:32:37;;;;;;;;;2.00;2.00;;;;;26.40;38.83;100918.72;5097583;27;45329;-61
2022/08/21 11:35:38;;;;;;;;;1.60;1.60;;;;;26.52;38.59;100918.31;5095939;27;47093;-61
2022/08/21 11:38:15;;;;;;;;;2.80;2.80;;;;;26.66;38.17;100920.25;5097090;27;45323;-63